»·PEaware :: WAT234 KCMA-KTOA

WAT234 :: KCMA-KTOA

FLIGHT INFORMATION

Flight Status: Arrived
Operator:
Walker Air Transport
More flights by this operator :: More flights under this callsign
Pilot: Eduardo Elias G. (24838)
Aircraft: CIRRUS SR-22
(SR22)
More flights by this aircraft type
Origin: KCMA Camarillo
United States
Destination: KTOA Zamperini
United States
More flights between these airports :: More routes between these airports
Route: VTU044R GINNA V326 VNY V186 ADAMM V394 SLI
File this flight plan on PilotEdge
Remarks: Tec route VTUP6
Altitude:
(Current/Filed)
5,000ft
Speed:
(Current/Filed)
150kts
Departed: 14-Aug-20 09:33 PM
Arrived: 14-Aug-20 10:16 PM
Distance/Time
Traveled:
45nm/0:43
Distance/Time
To Go:
Arrived

Flight Plot

Page will automatically refresh every two minutes.


Map Options




Map Legend


Flown Route
Filed Route
Departure Airport
Arrival Airport
Navaid (VOR, NDB)
Fix

Horizontal Profiles

Position Reports

Time Latitude Longitude Heading Altitude Ground
Speed
14-Aug-20 20:43 34.210350 -119.076473 90 77ft 0kts
14-Aug-20 20:44 34.210350 -119.076473 90 77ft 0kts
14-Aug-20 20:45 34.210350 -119.076473 90 77ft 0kts
14-Aug-20 20:46 34.210350 -119.076473 90 77ft 0kts
14-Aug-20 20:47 34.210350 -119.076473 90 77ft 0kts
14-Aug-20 20:48 34.210350 -119.076473 90 77ft 0kts
14-Aug-20 20:49 34.210350 -119.076473 90 77ft 0kts
14-Aug-20 20:50 34.210350 -119.076473 90 77ft 0kts
14-Aug-20 20:51 34.210350 -119.076473 90 77ft 0kts
14-Aug-20 20:52 34.210350 -119.076473 90 77ft 0kts
14-Aug-20 20:53 34.210350 -119.076473 90 77ft 0kts
14-Aug-20 20:54 34.210350 -119.076473 90 77ft 0kts
14-Aug-20 20:55 34.210350 -119.076473 90 77ft 0kts
14-Aug-20 20:56 34.210350 -119.076473 90 77ft 0kts
14-Aug-20 20:57 34.210350 -119.076473 90 77ft 0kts
14-Aug-20 20:58 34.210350 -119.076473 90 77ft 0kts
14-Aug-20 20:59 34.210350 -119.076473 90 77ft 0kts
14-Aug-20 21:00 34.210350 -119.076473 90 77ft 0kts
14-Aug-20 21:01 34.210350 -119.076473 90 77ft 0kts
14-Aug-20 21:02 34.210350 -119.076473 90 77ft 0kts
14-Aug-20 21:03 34.210350 -119.076473 90 77ft 0kts
14-Aug-20 21:04 34.210350 -119.076473 90 77ft 0kts
14-Aug-20 21:05 34.210350 -119.076473 90 77ft 0kts
14-Aug-20 21:06 34.210350 -119.076473 90 77ft 0kts
14-Aug-20 21:07 34.210350 -119.076473 90 77ft 0kts
14-Aug-20 21:08 34.210350 -119.076473 90 77ft 0kts
14-Aug-20 21:09 34.210350 -119.076473 90 77ft 0kts
14-Aug-20 21:10 34.210350 -119.076473 90 77ft 0kts
14-Aug-20 21:11 34.210350 -119.076473 90 77ft 0kts
14-Aug-20 21:12 34.210350 -119.076473 90 77ft 0kts
14-Aug-20 21:13 34.210350 -119.076473 90 77ft 0kts
14-Aug-20 21:14 34.210350 -119.076473 90 77ft 0kts
14-Aug-20 21:15 34.210350 -119.076473 90 77ft 0kts
14-Aug-20 21:16 34.210350 -119.076473 90 77ft 0kts
14-Aug-20 21:17 34.210350 -119.076473 90 77ft 0kts
14-Aug-20 21:18 34.210350 -119.076473 90 77ft 0kts
14-Aug-20 21:19 34.210350 -119.076473 90 77ft 0kts
14-Aug-20 21:20 34.210350 -119.076473 90 77ft 0kts
14-Aug-20 21:21 34.210421 -119.076297 87 77ft 0kts
14-Aug-20 21:22 34.210867 -119.075981 266 77ft 5kts
14-Aug-20 21:23 34.210885 -119.079204 270 77ft 12kts
14-Aug-20 21:24 34.210933 -119.084091 270 77ft 15kts
14-Aug-20 21:25 34.212352 -119.084344 307 77ft 0kts
14-Aug-20 21:26 34.212352 -119.084344 307 77ft 0kts
14-Aug-20 21:27 34.212352 -119.084344 307 77ft 0kts
14-Aug-20 21:28 34.212352 -119.084344 307 77ft 0kts
14-Aug-20 21:29 34.212352 -119.084344 307 77ft 0kts
14-Aug-20 21:30 34.212352 -119.084344 307 77ft 0kts
14-Aug-20 21:31 34.212498 -119.084560 331 77ft 2kts
14-Aug-20 21:32 34.213765 -119.090386 271 82ft 95kts
14-Aug-20 21:33 34.221494 -119.125468 287 1597ft 111kts
14-Aug-20 21:34 34.230111 -119.160168 287 3100ft 107kts
14-Aug-20 21:35 34.240555 -119.197122 293 4022ft 140kts
14-Aug-20 21:36 34.266791 -119.184004 95 4843ft 141kts
14-Aug-20 21:37 34.261088 -119.130787 98 5003ft 170kts
14-Aug-20 21:38 34.253999 -119.073811 99 4999ft 171kts
14-Aug-20 21:39 34.246701 -119.016451 99 4999ft 170kts
14-Aug-20 21:40 34.239283 -118.958410 99 4999ft 171kts
14-Aug-20 21:41 34.231862 -118.900727 99 5000ft 171kts
14-Aug-20 21:42 34.224492 -118.843501 98 5001ft 174kts
14-Aug-20 21:43 34.223142 -118.784438 89 4999ft 176kts
14-Aug-20 21:44 34.223279 -118.725514 89 4994ft 176kts
14-Aug-20 21:45 34.223363 -118.667238 89 4999ft 177kts
14-Aug-20 21:46 34.223415 -118.615848 89 4995ft 178kts
14-Aug-20 21:47 34.223453 -118.560363 89 5009ft 176kts
14-Aug-20 21:48 34.223485 -118.500321 89 5047ft 177kts
14-Aug-20 21:49 34.208732 -118.442923 110 5047ft 181kts
14-Aug-20 21:50 34.191245 -118.385226 110 5045ft 181kts
14-Aug-20 21:51 34.173822 -118.327876 110 5044ft 180kts
14-Aug-20 21:52 34.155379 -118.267294 110 5046ft 181kts
14-Aug-20 21:53 34.137985 -118.210193 110 5045ft 181kts
14-Aug-20 21:54 34.120642 -118.153444 110 5045ft 181kts
14-Aug-20 21:55 34.103448 -118.097257 110 5045ft 181kts
14-Aug-20 21:56 34.086079 -118.040678 110 5043ft 181kts
14-Aug-20 21:57 34.068784 -117.984396 110 5041ft 181kts
14-Aug-20 21:58 34.051500 -117.928266 110 5040ft 181kts
14-Aug-20 21:59 34.034076 -117.871794 110 5038ft 181kts
14-Aug-20 22:00 34.009470 -117.822658 174 5025ft 177kts
14-Aug-20 22:01 33.964566 -117.842191 203 5036ft 174kts
14-Aug-20 22:02 33.929812 -117.859027 203 5036ft 174kts
14-Aug-20 22:03 33.885098 -117.880634 203 5036ft 174kts
14-Aug-20 22:04 33.840303 -117.902262 203 5036ft 174kts
14-Aug-20 22:05 33.813097 -117.939917 252 5038ft 170kts
14-Aug-20 22:06 33.801226 -117.985555 253 4800ft 176kts
14-Aug-20 22:08 33.788120 -118.036077 253 4171ft 177kts
14-Aug-20 22:09 33.786105 -118.094648 274 3460ft 176kts
14-Aug-20 22:10 33.790190 -118.151825 274 2745ft 167kts
14-Aug-20 22:11 33.794000 -118.207721 271 2041ft 167kts
14-Aug-20 22:12 33.779820 -118.257434 246 1775ft 128kts
14-Aug-20 22:13 33.775968 -118.296685 284 1450ft 94kts
14-Aug-20 22:14 33.790668 -118.322030 310 737ft 88kts
14-Aug-20 22:15 33.804328 -118.342693 309 101ft 43kts
14-Aug-20 22:16 33.804804 -118.344487 215 101ft 0kts
14-Aug-20 22:17 33.804010 -118.344781 127 101ft 6kts
14-Aug-20 22:18 33.802175 -118.342521 134 101ft 8kts
14-Aug-20 22:19 33.802037 -118.342059 40 101ft 0kts

Navigation Log

Ident Type
Flight plan parsing failed, navigation log unavailable